LXJ230 KSAN-KSMO
Flight info
| Callsign | LXJ230 |
|---|---|
| Flight time | 0h 26m |
| Altitude | 18000 |
| Route | SANP10 |
| Aircraft | C25C/M-BGS/L |
Departure
| Time | 2026-04-26 02:16 |
|---|---|
| Airport | San Diego International Airport (KSAN) |
Arrival
| Time | 2026-04-26 02:43 |
|---|---|
| Airport | Santa Monica Municipal Airport (KSMO) |
| Time | Latitude | Longitude | Altitude | Speed | Heading |
|---|---|---|---|---|---|
| 2026-04-26 01:40 | 32.73412 | -117.17969 | 26 ft | 0 kts | 290° |
| 2026-04-26 01:42 | 32.73412 | -117.17966 | 26 ft | 0 kts | 290° |
| 2026-04-26 02:00 | 32.73412 | -117.17967 | 19 ft | 1 kts | 291° |
| 2026-04-26 02:00 | 32.73417 | -117.17974 | 19 ft | 3 kts | 322° |
| 2026-04-26 02:01 | 32.73429 | -117.17961 | 21 ft | 4 kts | 111° |
| 2026-04-26 02:01 | 32.73427 | -117.17958 | 21 ft | 0 kts | 128° |
| 2026-04-26 02:07 | 32.73415 | -117.17970 | 19 ft | 6 kts | 294° |
| 2026-04-26 02:08 | 32.73429 | -117.17973 | 21 ft | 1 kts | 20° |
| 2026-04-26 02:08 | 32.73437 | -117.17967 | 15 ft | 1 kts | 45° |
| 2026-04-26 02:08 | 32.73439 | -117.17960 | 23 ft | 0 kts | 75° |
| 2026-04-26 02:08 | 32.73440 | -117.17959 | 26 ft | 0 kts | 75° |
| 2026-04-26 02:09 | 32.73430 | -117.17945 | 18 ft | 8 kts | 178° |
| 2026-04-26 02:10 | 32.73366 | -117.17954 | 22 ft | 11 kts | 185° |
| 2026-04-26 02:10 | 32.73293 | -117.17907 | 20 ft | 16 kts | 113° |
| 2026-04-26 02:10 | 32.73261 | -117.17781 | 19 ft | 8 kts | 107° |
| 2026-04-26 02:10 | 32.73252 | -117.17747 | 19 ft | 0 kts | 105° |
| 2026-04-26 02:11 | 32.73247 | -117.17730 | 20 ft | 9 kts | 106° |
| 2026-04-26 02:11 | 32.73191 | -117.17661 | 20 ft | 14 kts | 148° |
| 2026-04-26 02:11 | 32.73151 | -117.17615 | 19 ft | 7 kts | 127° |
| 2026-04-26 02:12 | 32.73112 | -117.17566 | 18 ft | 9 kts | 142° |
| 2026-04-26 02:12 | 32.73101 | -117.17556 | 19 ft | 0 kts | 144° |
| 2026-04-26 02:15 | 32.73043 | -117.17528 | 20 ft | 13 kts | 181° |
| 2026-04-26 02:15 | 32.73023 | -117.17600 | 19 ft | 12 kts | 289° |
| 2026-04-26 02:15 | 32.73027 | -117.17615 | 18 ft | 0 kts | 288° |
| 2026-04-26 02:16 | 32.73031 | -117.17629 | 18 ft | 3 kts | 287° |
| 2026-04-26 02:16 | 32.73053 | -117.17718 | 17 ft | 30 kts | 285° |
| 2026-04-26 02:16 | 32.73214 | -117.18391 | 99 ft | 136 kts | 285° |
| 2026-04-26 02:16 | 32.73541 | -117.19688 | 895 ft | 181 kts | 286° |
| 2026-04-26 02:17 | 32.74183 | -117.21116 | 1838 ft | 215 kts | 305° |
| 2026-04-26 02:17 | 32.75100 | -117.22575 | 2833 ft | 224 kts | 301° |
| 2026-04-26 02:17 | 32.75966 | -117.24137 | 3876 ft | 224 kts | 300° |
| 2026-04-26 02:17 | 32.76805 | -117.25632 | 4788 ft | 215 kts | 301° |
| 2026-04-26 02:18 | 32.77593 | -117.27139 | 5467 ft | 215 kts | 300° |
| 2026-04-26 02:18 | 32.78398 | -117.28636 | 6126 ft | 215 kts | 300° |
| 2026-04-26 02:18 | 32.79192 | -117.30107 | 6902 ft | 207 kts | 301° |
| 2026-04-26 02:18 | 32.79993 | -117.31510 | 7685 ft | 209 kts | 301° |
| 2026-04-26 02:19 | 32.80868 | -117.33001 | 8507 ft | 234 kts | 303° |
| 2026-04-26 02:19 | 32.81903 | -117.34654 | 9184 ft | 264 kts | 303° |
| 2026-04-26 02:19 | 32.83099 | -117.36519 | 9469 ft | 304 kts | 304° |
| 2026-04-26 02:19 | 32.84453 | -117.38643 | 9547 ft | 329 kts | 302° |
| 2026-04-26 02:20 | 32.85753 | -117.40872 | 9622 ft | 329 kts | 302° |
| 2026-04-26 02:20 | 32.87143 | -117.43037 | 9702 ft | 328 kts | 305° |
| 2026-04-26 02:20 | 32.88533 | -117.45137 | 9773 ft | 326 kts | 304° |
| 2026-04-26 02:20 | 32.89914 | -117.47274 | 9853 ft | 325 kts | 304° |
| 2026-04-26 02:21 | 32.91283 | -117.49418 | 9922 ft | 323 kts | 303° |
| 2026-04-26 02:21 | 32.92646 | -117.51549 | 9946 ft | 323 kts | 304° |
| 2026-04-26 02:21 | 32.94009 | -117.53667 | 9952 ft | 320 kts | 303° |
| 2026-04-26 02:21 | 32.95345 | -117.55737 | 9967 ft | 317 kts | 304° |
| 2026-04-26 02:22 | 32.96682 | -117.57822 | 9972 ft | 316 kts | 303° |
| 2026-04-26 02:22 | 32.98009 | -117.59901 | 9968 ft | 315 kts | 304° |
| 2026-04-26 02:22 | 32.99338 | -117.61972 | 9960 ft | 314 kts | 303° |
| 2026-04-26 02:22 | 33.00662 | -117.64042 | 9966 ft | 314 kts | 304° |
| 2026-04-26 02:23 | 33.01986 | -117.66106 | 9964 ft | 313 kts | 304° |
| 2026-04-26 02:23 | 33.03305 | -117.68174 | 9963 ft | 313 kts | 304° |
| 2026-04-26 02:23 | 33.04630 | -117.70239 | 9963 ft | 316 kts | 304° |
| 2026-04-26 02:23 | 33.05971 | -117.72339 | 9959 ft | 320 kts | 305° |
| 2026-04-26 02:24 | 33.07583 | -117.74209 | 9956 ft | 328 kts | 318° |
| 2026-04-26 02:24 | 33.09346 | -117.75937 | 9959 ft | 329 kts | 315° |
| 2026-04-26 02:24 | 33.11075 | -117.77742 | 9962 ft | 331 kts | 316° |
| 2026-04-26 02:24 | 33.12812 | -117.79497 | 9969 ft | 331 kts | 316° |
| 2026-04-26 02:25 | 33.14566 | -117.81284 | 9987 ft | 330 kts | 316° |
| 2026-04-26 02:25 | 33.16317 | -117.83055 | 9991 ft | 328 kts | 316° |
| 2026-04-26 02:25 | 33.18039 | -117.84820 | 9988 ft | 313 kts | 316° |
| 2026-04-26 02:25 | 33.19752 | -117.86114 | 9989 ft | 277 kts | 334° |
| 2026-04-26 02:26 | 33.21548 | -117.86731 | 9979 ft | 259 kts | 341° |
| 2026-04-26 02:26 | 33.23291 | -117.87194 | 9980 ft | 259 kts | 343° |
| 2026-04-26 02:26 | 33.25018 | -117.87594 | 9977 ft | 246 kts | 343° |
| 2026-04-26 02:26 | 33.26635 | -117.87988 | 9977 ft | 234 kts | 342° |
| 2026-04-26 02:27 | 33.28230 | -117.88387 | 9980 ft | 234 kts | 342° |
| 2026-04-26 02:27 | 33.29828 | -117.88794 | 9981 ft | 235 kts | 342° |
| 2026-04-26 02:27 | 33.31449 | -117.89195 | 9983 ft | 245 kts | 342° |
| 2026-04-26 02:27 | 33.33190 | -117.89636 | 9987 ft | 264 kts | 343° |
| 2026-04-26 02:28 | 33.35021 | -117.90088 | 9994 ft | 272 kts | 343° |
| 2026-04-26 02:28 | 33.36910 | -117.90558 | 9998 ft | 280 kts | 343° |
| 2026-04-26 02:28 | 33.38824 | -117.91062 | 9997 ft | 282 kts | 339° |
| 2026-04-26 02:28 | 33.40675 | -117.91803 | 10000 ft | 280 kts | 337° |
| 2026-04-26 02:29 | 33.42552 | -117.92445 | 9996 ft | 281 kts | 339° |
| 2026-04-26 02:29 | 33.44406 | -117.93101 | 9998 ft | 280 kts | 338° |
| 2026-04-26 02:29 | 33.46276 | -117.93777 | 9999 ft | 282 kts | 338° |
| 2026-04-26 02:29 | 33.48173 | -117.94481 | 10000 ft | 286 kts | 338° |
| 2026-04-26 02:30 | 33.50047 | -117.95153 | 9999 ft | 276 kts | 338° |
| 2026-04-26 02:30 | 33.51860 | -117.95815 | 9996 ft | 269 kts | 338° |
| 2026-04-26 02:30 | 33.53648 | -117.96462 | 9993 ft | 268 kts | 338° |
| 2026-04-26 02:30 | 33.55427 | -117.97117 | 9990 ft | 266 kts | 338° |
| 2026-04-26 02:31 | 33.57201 | -117.97753 | 9988 ft | 265 kts | 338° |
| 2026-04-26 02:31 | 33.58970 | -117.98407 | 9987 ft | 268 kts | 338° |
| 2026-04-26 02:31 | 33.60768 | -117.99057 | 9989 ft | 271 kts | 338° |
| 2026-04-26 02:31 | 33.62578 | -117.99725 | 9988 ft | 273 kts | 338° |
| 2026-04-26 02:32 | 33.64405 | -118.00382 | 10002 ft | 275 kts | 338° |
| 2026-04-26 02:32 | 33.66239 | -118.01059 | 10004 ft | 277 kts | 338° |
| 2026-04-26 02:32 | 33.68093 | -118.01726 | 10003 ft | 278 kts | 338° |
| 2026-04-26 02:32 | 33.69947 | -118.02409 | 10002 ft | 279 kts | 338° |
| 2026-04-26 02:33 | 33.71812 | -118.03089 | 9930 ft | 282 kts | 338° |
| 2026-04-26 02:33 | 33.73708 | -118.03791 | 9755 ft | 287 kts | 338° |
| 2026-04-26 02:33 | 33.75637 | -118.04488 | 9541 ft | 292 kts | 339° |
| 2026-04-26 02:33 | 33.77588 | -118.05200 | 9360 ft | 293 kts | 338° |
| 2026-04-26 02:34 | 33.79449 | -118.06084 | 9175 ft | 289 kts | 328° |
| 2026-04-26 02:34 | 33.81239 | -118.07183 | 8997 ft | 289 kts | 329° |
| 2026-04-26 02:34 | 33.83067 | -118.08201 | 8814 ft | 289 kts | 332° |
| 2026-04-26 02:34 | 33.84890 | -118.09233 | 8641 ft | 290 kts | 330° |
| 2026-04-26 02:35 | 33.86712 | -118.10283 | 8464 ft | 291 kts | 330° |
| 2026-04-26 02:35 | 33.88534 | -118.11339 | 8288 ft | 291 kts | 330° |
| 2026-04-26 02:35 | 33.90366 | -118.12390 | 8133 ft | 291 kts | 331° |
| 2026-04-26 02:35 | 33.92189 | -118.13438 | 7881 ft | 286 kts | 330° |
| 2026-04-26 02:36 | 33.93965 | -118.14458 | 7621 ft | 279 kts | 331° |
| 2026-04-26 02:36 | 33.95698 | -118.15457 | 7370 ft | 272 kts | 330° |
| 2026-04-26 02:36 | 33.97377 | -118.16426 | 7125 ft | 264 kts | 331° |
| 2026-04-26 02:36 | 33.99004 | -118.17361 | 6873 ft | 252 kts | 330° |
| 2026-04-26 02:37 | 34.00552 | -118.18255 | 6623 ft | 240 kts | 331° |
| 2026-04-26 02:37 | 34.02010 | -118.19095 | 6373 ft | 229 kts | 330° |
| 2026-04-26 02:37 | 34.03417 | -118.19905 | 6102 ft | 221 kts | 331° |
| 2026-04-26 02:37 | 34.04791 | -118.20698 | 5781 ft | 219 kts | 331° |
| 2026-04-26 02:38 | 34.06172 | -118.21553 | 5396 ft | 226 kts | 329° |
| 2026-04-26 02:38 | 34.07572 | -118.22459 | 5113 ft | 231 kts | 328° |
| 2026-04-26 02:38 | 34.09014 | -118.23369 | 4805 ft | 234 kts | 333° |
| 2026-04-26 02:38 | 34.10450 | -118.24268 | 4697 ft | 229 kts | 328° |
| 2026-04-26 02:39 | 34.11678 | -118.25447 | 4571 ft | 227 kts | 310° |
| 2026-04-26 02:39 | 34.12480 | -118.27091 | 4342 ft | 230 kts | 285° |
| 2026-04-26 02:39 | 34.12515 | -118.29011 | 4087 ft | 231 kts | 256° |
| 2026-04-26 02:39 | 34.12014 | -118.30849 | 3970 ft | 228 kts | 246° |
| 2026-04-26 02:40 | 34.11351 | -118.32575 | 3819 ft | 226 kts | 241° |
| 2026-04-26 02:40 | 34.10520 | -118.34200 | 3529 ft | 230 kts | 234° |
| 2026-04-26 02:40 | 34.09506 | -118.35719 | 3211 ft | 234 kts | 227° |
| 2026-04-26 02:40 | 34.08356 | -118.37065 | 2922 ft | 230 kts | 222° |
| 2026-04-26 02:41 | 34.07236 | -118.38338 | 2678 ft | 212 kts | 224° |
| 2026-04-26 02:41 | 34.06221 | -118.39564 | 2381 ft | 201 kts | 225° |
| 2026-04-26 02:41 | 34.05308 | -118.40681 | 2099 ft | 175 kts | 224° |
| 2026-04-26 02:41 | 34.04531 | -118.41619 | 1727 ft | 137 kts | 224° |
| 2026-04-26 02:42 | 34.03918 | -118.42368 | 1313 ft | 115 kts | 224° |
| 2026-04-26 02:42 | 34.03368 | -118.43014 | 951 ft | 105 kts | 225° |
| 2026-04-26 02:42 | 34.02856 | -118.43599 | 653 ft | 97 kts | 225° |
| 2026-04-26 02:42 | 34.02400 | -118.44153 | 379 ft | 92 kts | 226° |
| 2026-04-26 02:43 | 34.01609 | -118.45097 | 153 ft | 59 kts | 225° |
| 2026-04-26 02:43 | 34.01392 | -118.45363 | 144 ft | 36 kts | 222° |
| 2026-04-26 02:43 | 34.01357 | -118.45479 | 141 ft | 12 kts | 327° |
| 2026-04-26 02:44 | 34.01369 | -118.45484 | 141 ft | 0 kts | 354° |
| 2026-04-26 02:45 | 34.01405 | -118.45454 | 143 ft | 14 kts | 53° |
| 2026-04-26 02:45 | 34.01478 | -118.45367 | 145 ft | 15 kts | 44° |
| 2026-04-26 02:45 | 34.01548 | -118.45289 | 149 ft | 12 kts | 32° |
| 2026-04-26 02:45 | 34.01614 | -118.45277 | 150 ft | 7 kts | 345° |
| 2026-04-26 02:46 | 34.01644 | -118.45294 | 150 ft | 0 kts | 329° |